sensor_id;sensor_type;location;lat;lon;timestamp;temperature;humidity
53208;DHT22;39093;52.788;6.940;2023-03-13T00:01:29;8.70;99.90
53208;DHT22;39093;52.788;6.940;2023-03-13T00:03:56;8.70;99.90
53208;DHT22;39093;52.788;6.940;2023-03-13T00:06:26;8.50;99.90
53208;DHT22;39093;52.788;6.940;2023-03-13T00:08:54;8.60;99.90
53208;DHT22;39093;52.788;6.940;2023-03-13T00:11:21;8.60;99.90
53208;DHT22;39093;52.788;6.940;2023-03-13T00:13:53;8.60;99.90
53208;DHT22;39093;52.788;6.940;2023-03-13T00:16:20;8.60;99.90
53208;DHT22;39093;52.788;6.940;2023-03-13T00:18:50;8.60;99.90
53208;DHT22;39093;52.788;6.940;2023-03-13T00:21:19;8.50;99.90
53208;DHT22;39093;52.788;6.940;2023-03-13T00:23:47;8.50;99.90
53208;DHT22;39093;52.788;6.940;2023-03-13T00:26:22;8.50;99.90
53208;DHT22;39093;52.788;6.940;2023-03-13T00:28:50;8.50;99.90
53208;DHT22;39093;52.788;6.940;2023-03-13T00:31:19;8.50;99.90
53208;DHT22;39093;52.788;6.940;2023-03-13T00:33:49;8.50;99.90
53208;DHT22;39093;52.788;6.940;2023-03-13T00:36:26;8.50;99.90
53208;DHT22;39093;52.788;6.940;2023-03-13T00:38:54;8.50;99.90
53208;DHT22;39093;52.788;6.940;2023-03-13T00:41:23;8.50;99.90
53208;DHT22;39093;52.788;6.940;2023-03-13T00:43:51;8.50;99.90
53208;DHT22;39093;52.788;6.940;2023-03-13T00:46:20;8.50;99.90
53208;DHT22;39093;52.788;6.940;2023-03-13T00:48:48;8.40;99.90
53208;DHT22;39093;52.788;6.940;2023-03-13T00:51:16;8.50;99.90
53208;DHT22;39093;52.788;6.940;2023-03-13T00:53:44;8.40;99.90
53208;DHT22;39093;52.788;6.940;2023-03-13T00:56:15;8.40;99.90
53208;DHT22;39093;52.788;6.940;2023-03-13T00:58:44;8.40;99.90
53208;DHT22;39093;52.788;6.940;2023-03-13T01:01:31;8.40;99.90
53208;DHT22;39093;52.788;6.940;2023-03-13T01:04:01;8.40;99.90
53208;DHT22;39093;52.788;6.940;2023-03-13T01:06:30;8.30;99.90
53208;DHT22;39093;52.788;6.940;2023-03-13T01:08:58;8.30;99.90
53208;DHT22;39093;52.788;6.940;2023-03-13T01:11:29;8.30;99.90
53208;DHT22;39093;52.788;6.940;2023-03-13T01:13:58;8.30;99.90
53208;DHT22;39093;52.788;6.940;2023-03-13T01:16:27;8.30;99.90
53208;DHT22;39093;52.788;6.940;2023-03-13T01:18:57;8.30;99.90
53208;DHT22;39093;52.788;6.940;2023-03-13T01:21:25;8.30;99.90
53208;DHT22;39093;52.788;6.940;2023-03-13T01:23:53;8.40;99.90
53208;DHT22;39093;52.788;6.940;2023-03-13T01:26:21;8.30;99.90
53208;DHT22;39093;52.788;6.940;2023-03-13T01:28:48;8.40;99.90
53208;DHT22;39093;52.788;6.940;2023-03-13T01:31:20;8.40;99.90
53208;DHT22;39093;52.788;6.940;2023-03-13T01:33:50;8.40;99.90
53208;DHT22;39093;52.788;6.940;2023-03-13T01:36:17;8.40;99.90
53208;DHT22;39093;52.788;6.940;2023-03-13T01:38:49;8.40;99.90
53208;DHT22;39093;52.788;6.940;2023-03-13T01:41:17;8.30;99.90
53208;DHT22;39093;52.788;6.940;2023-03-13T01:43:45;8.40;99.90
53208;DHT22;39093;52.788;6.940;2023-03-13T01:46:16;8.50;99.90
53208;DHT22;39093;52.788;6.940;2023-03-13T01:48:51;8.40;99.90
53208;DHT22;39093;52.788;6.940;2023-03-13T01:51:21;8.40;99.90
53208;DHT22;39093;52.788;6.940;2023-03-13T01:54:07;8.40;99.90
53208;DHT22;39093;52.788;6.940;2023-03-13T01:57:03;8.40;99.90
53208;DHT22;39093;52.788;6.940;2023-03-13T01:59:44;8.40;99.90
53208;DHT22;39093;52.788;6.940;2023-03-13T02:02:14;8.40;99.90
53208;DHT22;39093;52.788;6.940;2023-03-13T02:04:46;8.40;99.90
53208;DHT22;39093;52.788;6.940;2023-03-13T02:07:18;8.50;99.90
53208;DHT22;39093;52.788;6.940;2023-03-13T02:09:48;8.50;99.90
53208;DHT22;39093;52.788;6.940;2023-03-13T02:12:23;8.50;99.90
53208;DHT22;39093;52.788;6.940;2023-03-13T02:14:53;8.50;99.90
53208;DHT22;39093;52.788;6.940;2023-03-13T02:17:21;8.50;99.90
53208;DHT22;39093;52.788;6.940;2023-03-13T02:19:50;8.50;99.90
53208;DHT22;39093;52.788;6.940;2023-03-13T02:30:21;8.50;99.90
53208;DHT22;39093;52.788;6.940;2023-03-13T02:32:49;8.50;99.90
53208;DHT22;39093;52.788;6.940;2023-03-13T02:35:18;8.50;99.90
53208;DHT22;39093;52.788;6.940;2023-03-13T02:37:52;8.50;99.90
53208;DHT22;39093;52.788;6.940;2023-03-13T02:40:26;8.50;99.90
53208;DHT22;39093;52.788;6.940;2023-03-13T02:42:53;8.40;99.90
53208;DHT22;39093;52.788;6.940;2023-03-13T02:45:21;8.50;99.90
53208;DHT22;39093;52.788;6.940;2023-03-13T02:47:48;8.50;99.90
53208;DHT22;39093;52.788;6.940;2023-03-13T02:50:16;8.50;99.90
53208;DHT22;39093;52.788;6.940;2023-03-13T02:52:48;8.60;99.90
53208;DHT22;39093;52.788;6.940;2023-03-13T02:55:42;8.50;99.90
53208;DHT22;39093;52.788;6.940;2023-03-13T02:58:09;8.60;99.90
53208;DHT22;39093;52.788;6.940;2023-03-13T03:00:35;8.60;99.90
53208;DHT22;39093;52.788;6.940;2023-03-13T03:03:02;8.60;99.90
53208;DHT22;39093;52.788;6.940;2023-03-13T03:05:29;8.60;99.90
53208;DHT22;39093;52.788;6.940;2023-03-13T03:07:56;8.70;99.90
53208;DHT22;39093;52.788;6.940;2023-03-13T03:10:23;8.70;99.90
53208;DHT22;39093;52.788;6.940;2023-03-13T03:12:50;8.70;99.90
53208;DHT22;39093;52.788;6.940;2023-03-13T03:15:17;8.80;99.90
53208;DHT22;39093;52.788;6.940;2023-03-13T03:17:43;8.70;99.90
53208;DHT22;39093;52.788;6.940;2023-03-13T03:20:11;8.80;99.90
53208;DHT22;39093;52.788;6.940;2023-03-13T03:22:38;8.80;99.90
53208;DHT22;39093;52.788;6.940;2023-03-13T03:25:07;8.80;99.90
53208;DHT22;39093;52.788;6.940;2023-03-13T03:27:35;8.80;99.90
53208;DHT22;39093;52.788;6.940;2023-03-13T03:30:04;8.90;99.90
53208;DHT22;39093;52.788;6.940;2023-03-13T03:32:31;8.90;99.90
53208;DHT22;39093;52.788;6.940;2023-03-13T03:34:58;8.90;99.90
53208;DHT22;39093;52.788;6.940;2023-03-13T03:37:24;8.90;99.90
53208;DHT22;39093;52.788;6.940;2023-03-13T03:39:51;9.00;99.90
53208;DHT22;39093;52.788;6.940;2023-03-13T03:42:18;9.00;99.90
53208;DHT22;39093;52.788;6.940;2023-03-13T03:44:45;9.00;99.90
53208;DHT22;39093;52.788;6.940;2023-03-13T03:47:12;9.10;99.90
53208;DHT22;39093;52.788;6.940;2023-03-13T03:49:39;9.10;99.90
53208;DHT22;39093;52.788;6.940;2023-03-13T03:52:06;9.10;99.90
53208;DHT22;39093;52.788;6.940;2023-03-13T03:54:33;9.10;99.90
53208;DHT22;39093;52.788;6.940;2023-03-13T03:57:00;9.10;99.90
53208;DHT22;39093;52.788;6.940;2023-03-13T03:59:27;9.20;99.90
53208;DHT22;39093;52.788;6.940;2023-03-13T04:01:54;9.30;99.90
53208;DHT22;39093;52.788;6.940;2023-03-13T04:04:21;9.20;99.90
53208;DHT22;39093;52.788;6.940;2023-03-13T04:06:48;9.20;99.90
53208;DHT22;39093;52.788;6.940;2023-03-13T04:09:15;9.30;99.90
53208;DHT22;39093;52.788;6.940;2023-03-13T04:11:42;9.20;99.90
53208;DHT22;39093;52.788;6.940;2023-03-13T04:14:09;9.30;99.90
53208;DHT22;39093;52.788;6.940;2023-03-13T04:16:36;9.40;99.90
53208;DHT22;39093;52.788;6.940;2023-03-13T04:19:03;9.40;99.90
53208;DHT22;39093;52.788;6.940;2023-03-13T04:21:29;9.50;99.90
53208;DHT22;39093;52.788;6.940;2023-03-13T04:23:56;9.50;99.90
53208;DHT22;39093;52.788;6.940;2023-03-13T04:26:23;9.60;99.90
53208;DHT22;39093;52.788;6.940;2023-03-13T04:28:50;9.60;99.90
53208;DHT22;39093;52.788;6.940;2023-03-13T04:31:17;9.70;99.90
53208;DHT22;39093;52.788;6.940;2023-03-13T04:33:44;9.70;99.90
53208;DHT22;39093;52.788;6.940;2023-03-13T04:36:11;9.70;99.90
53208;DHT22;39093;52.788;6.940;2023-03-13T04:38:38;9.80;99.90
53208;DHT22;39093;52.788;6.940;2023-03-13T04:41:05;9.80;99.90
53208;DHT22;39093;52.788;6.940;2023-03-13T04:43:31;9.90;99.90
53208;DHT22;39093;52.788;6.940;2023-03-13T04:45:58;9.90;99.90
53208;DHT22;39093;52.788;6.940;2023-03-13T04:48:25;9.90;99.90
53208;DHT22;39093;52.788;6.940;2023-03-13T04:50:52;9.90;99.90
53208;DHT22;39093;52.788;6.940;2023-03-13T04:53:19;9.90;99.90
53208;DHT22;39093;52.788;6.940;2023-03-13T04:55:46;10.00;99.90
53208;DHT22;39093;52.788;6.940;2023-03-13T04:58:14;10.00;99.90
53208;DHT22;39093;52.788;6.940;2023-03-13T05:00:41;10.00;99.90
53208;DHT22;39093;52.788;6.940;2023-03-13T05:03:08;10.00;99.90
53208;DHT22;39093;52.788;6.940;2023-03-13T05:05:35;10.00;99.90
53208;DHT22;39093;52.788;6.940;2023-03-13T05:08:01;10.00;99.90
53208;DHT22;39093;52.788;6.940;2023-03-13T05:10:29;10.10;99.90
53208;DHT22;39093;52.788;6.940;2023-03-13T05:12:56;10.00;99.90
53208;DHT22;39093;52.788;6.940;2023-03-13T05:15:22;10.10;99.90
53208;DHT22;39093;52.788;6.940;2023-03-13T05:17:49;10.20;99.90
53208;DHT22;39093;52.788;6.940;2023-03-13T05:20:19;10.20;99.90
53208;DHT22;39093;52.788;6.940;2023-03-13T05:22:46;10.20;99.90
53208;DHT22;39093;52.788;6.940;2023-03-13T05:25:13;10.20;99.90
53208;DHT22;39093;52.788;6.940;2023-03-13T05:27:41;10.20;99.90
53208;DHT22;39093;52.788;6.940;2023-03-13T05:30:08;10.30;99.90
53208;DHT22;39093;52.788;6.940;2023-03-13T05:32:35;10.30;99.90
53208;DHT22;39093;52.788;6.940;2023-03-13T05:35:02;10.30;99.90
53208;DHT22;39093;52.788;6.940;2023-03-13T05:37:29;10.40;99.90
53208;DHT22;39093;52.788;6.940;2023-03-13T05:39:56;10.40;99.90
53208;DHT22;39093;52.788;6.940;2023-03-13T05:42:23;10.50;99.90
53208;DHT22;39093;52.788;6.940;2023-03-13T05:44:52;10.50;99.90
53208;DHT22;39093;52.788;6.940;2023-03-13T05:47:19;10.60;99.90
53208;DHT22;39093;52.788;6.940;2023-03-13T05:49:46;10.50;99.90
53208;DHT22;39093;52.788;6.940;2023-03-13T05:52:13;10.60;99.90
53208;DHT22;39093;52.788;6.940;2023-03-13T05:54:39;10.50;99.90
53208;DHT22;39093;52.788;6.940;2023-03-13T05:57:06;10.60;99.90
53208;DHT22;39093;52.788;6.940;2023-03-13T05:59:33;10.60;99.90
53208;DHT22;39093;52.788;6.940;2023-03-13T06:02:00;10.70;99.90
53208;DHT22;39093;52.788;6.940;2023-03-13T06:04:27;10.60;99.90
53208;DHT22;39093;52.788;6.940;2023-03-13T06:06:54;10.70;99.90
53208;DHT22;39093;52.788;6.940;2023-03-13T06:09:21;10.80;99.90
53208;DHT22;39093;52.788;6.940;2023-03-13T06:11:48;10.80;99.90
53208;DHT22;39093;52.788;6.940;2023-03-13T06:14:14;10.70;99.90
53208;DHT22;39093;52.788;6.940;2023-03-13T06:16:41;10.70;99.90
53208;DHT22;39093;52.788;6.940;2023-03-13T06:19:08;10.80;99.90
53208;DHT22;39093;52.788;6.940;2023-03-13T06:21:35;11.00;99.90
53208;DHT22;39093;52.788;6.940;2023-03-13T06:24:02;11.00;99.90
53208;DHT22;39093;52.788;6.940;2023-03-13T06:26:29;11.00;99.90
53208;DHT22;39093;52.788;6.940;2023-03-13T06:28:57;11.10;99.90
53208;DHT22;39093;52.788;6.940;2023-03-13T06:31:24;11.20;99.90
53208;DHT22;39093;52.788;6.940;2023-03-13T06:33:54;11.30;99.90
53208;DHT22;39093;52.788;6.940;2023-03-13T06:36:24;11.30;99.90
53208;DHT22;39093;52.788;6.940;2023-03-13T06:38:51;11.30;99.90
53208;DHT22;39093;52.788;6.940;2023-03-13T06:41:18;11.30;99.90
53208;DHT22;39093;52.788;6.940;2023-03-13T06:43:45;11.30;99.90
53208;DHT22;39093;52.788;6.940;2023-03-13T06:46:17;11.20;99.90
53208;DHT22;39093;52.788;6.940;2023-03-13T06:48:44;11.30;99.90
53208;DHT22;39093;52.788;6.940;2023-03-13T06:51:13;11.30;99.90
53208;DHT22;39093;52.788;6.940;2023-03-13T06:53:40;11.30;99.90
53208;DHT22;39093;52.788;6.940;2023-03-13T06:56:08;11.40;99.90
53208;DHT22;39093;52.788;6.940;2023-03-13T06:58:35;11.40;99.90
53208;DHT22;39093;52.788;6.940;2023-03-13T07:01:10;11.50;99.90
53208;DHT22;39093;52.788;6.940;2023-03-13T07:03:38;11.50;99.90
53208;DHT22;39093;52.788;6.940;2023-03-13T07:06:08;11.40;99.90
53208;DHT22;39093;52.788;6.940;2023-03-13T07:08:35;11.50;99.90
53208;DHT22;39093;52.788;6.940;2023-03-13T07:11:04;11.50;99.90
53208;DHT22;39093;52.788;6.940;2023-03-13T07:13:32;11.50;99.90
53208;DHT22;39093;52.788;6.940;2023-03-13T07:16:03;11.50;99.90
53208;DHT22;39093;52.788;6.940;2023-03-13T07:18:31;11.60;99.90
53208;DHT22;39093;52.788;6.940;2023-03-13T07:21:00;11.70;99.90
53208;DHT22;39093;52.788;6.940;2023-03-13T07:23:27;11.80;99.90
53208;DHT22;39093;52.788;6.940;2023-03-13T07:25:57;11.80;99.90
53208;DHT22;39093;52.788;6.940;2023-03-13T07:28:25;11.80;99.90
53208;DHT22;39093;52.788;6.940;2023-03-13T07:30:52;11.80;99.90
53208;DHT22;39093;52.788;6.940;2023-03-13T07:33:19;11.80;99.90
53208;DHT22;39093;52.788;6.940;2023-03-13T07:35:47;11.80;99.90
53208;DHT22;39093;52.788;6.940;2023-03-13T07:38:14;11.80;99.90
53208;DHT22;39093;52.788;6.940;2023-03-13T07:40:49;11.90;99.90
53208;DHT22;39093;52.788;6.940;2023-03-13T07:43:16;11.90;99.90
53208;DHT22;39093;52.788;6.940;2023-03-13T07:45:51;11.90;99.90
53208;DHT22;39093;52.788;6.940;2023-03-13T07:48:18;11.80;99.90
53208;DHT22;39093;52.788;6.940;2023-03-13T07:50:45;11.90;99.90
53208;DHT22;39093;52.788;6.940;2023-03-13T07:53:12;12.00;99.90
53208;DHT22;39093;52.788;6.940;2023-03-13T07:55:41;12.00;99.90
53208;DHT22;39093;52.788;6.940;2023-03-13T07:58:08;12.00;99.90
53208;DHT22;39093;52.788;6.940;2023-03-13T08:00:35;12.00;99.90
53208;DHT22;39093;52.788;6.940;2023-03-13T08:03:02;12.00;99.90
53208;DHT22;39093;52.788;6.940;2023-03-13T08:05:33;12.10;99.90
53208;DHT22;39093;52.788;6.940;2023-03-13T08:07:59;12.10;99.90
53208;DHT22;39093;52.788;6.940;2023-03-13T08:10:26;12.10;99.90
53208;DHT22;39093;52.788;6.940;2023-03-13T08:12:53;12.10;99.90
53208;DHT22;39093;52.788;6.940;2023-03-13T08:15:20;12.10;99.90
53208;DHT22;39093;52.788;6.940;2023-03-13T08:17:51;12.10;99.90
53208;DHT22;39093;52.788;6.940;2023-03-13T08:20:18;12.00;99.90
53208;DHT22;39093;52.788;6.940;2023-03-13T08:22:45;12.00;99.90
53208;DHT22;39093;52.788;6.940;2023-03-13T08:25:13;12.00;99.90
53208;DHT22;39093;52.788;6.940;2023-03-13T08:27:40;11.90;99.90
53208;DHT22;39093;52.788;6.940;2023-03-13T08:30:08;11.90;99.90
53208;DHT22;39093;52.788;6.940;2023-03-13T08:32:35;11.80;99.90
53208;DHT22;39093;52.788;6.940;2023-03-13T08:35:03;11.70;99.90
53208;DHT22;39093;52.788;6.940;2023-03-13T08:37:30;11.70;99.90
53208;DHT22;39093;52.788;6.940;2023-03-13T08:39:57;11.80;99.90
53208;DHT22;39093;52.788;6.940;2023-03-13T08:42:23;11.70;99.90
53208;DHT22;39093;52.788;6.940;2023-03-13T08:44:50;11.80;99.90
53208;DHT22;39093;52.788;6.940;2023-03-13T08:47:17;11.80;99.90
53208;DHT22;39093;52.788;6.940;2023-03-13T08:49:44;11.90;99.90
53208;DHT22;39093;52.788;6.940;2023-03-13T08:52:11;11.80;99.90
53208;DHT22;39093;52.788;6.940;2023-03-13T08:54:38;11.90;99.90
53208;DHT22;39093;52.788;6.940;2023-03-13T08:57:05;12.00;99.90
53208;DHT22;39093;52.788;6.940;2023-03-13T08:59:32;12.10;99.90
53208;DHT22;39093;52.788;6.940;2023-03-13T09:01:58;12.10;99.90
53208;DHT22;39093;52.788;6.940;2023-03-13T09:04:25;12.20;99.90
53208;DHT22;39093;52.788;6.940;2023-03-13T09:06:52;12.20;99.90
53208;DHT22;39093;52.788;6.940;2023-03-13T09:09:19;12.20;99.90
53208;DHT22;39093;52.788;6.940;2023-03-13T09:11:48;12.30;99.90
53208;DHT22;39093;52.788;6.940;2023-03-13T09:14:15;12.40;99.90
53208;DHT22;39093;52.788;6.940;2023-03-13T09:16:42;12.50;99.90
53208;DHT22;39093;52.788;6.940;2023-03-13T09:19:10;12.70;99.90
53208;DHT22;39093;52.788;6.940;2023-03-13T09:21:37;12.80;99.90
53208;DHT22;39093;52.788;6.940;2023-03-13T09:24:04;12.90;99.90
53208;DHT22;39093;52.788;6.940;2023-03-13T09:26:31;13.00;99.90
53208;DHT22;39093;52.788;6.940;2023-03-13T09:28:58;13.00;99.90
53208;DHT22;39093;52.788;6.940;2023-03-13T09:31:27;13.00;99.90
53208;DHT22;39093;52.788;6.940;2023-03-13T09:33:56;13.00;99.90
53208;DHT22;39093;52.788;6.940;2023-03-13T09:36:23;13.00;99.90
53208;DHT22;39093;52.788;6.940;2023-03-13T09:38:53;13.00;99.90
53208;DHT22;39093;52.788;6.940;2023-03-13T09:41:33;13.10;99.90
53208;DHT22;39093;52.788;6.940;2023-03-13T09:49:40;13.10;99.90
53208;DHT22;39093;52.788;6.940;2023-03-13T09:54:54;13.10;99.90
53208;DHT22;39093;52.788;6.940;2023-03-13T10:00:23;13.10;99.90
53208;DHT22;39093;52.788;6.940;2023-03-13T10:06:00;13.00;99.90
53208;DHT22;39093;52.788;6.940;2023-03-13T10:08:33;13.10;99.90
53208;DHT22;39093;52.788;6.940;2023-03-13T10:11:21;13.10;99.90
53208;DHT22;39093;52.788;6.940;2023-03-13T10:14:05;13.00;99.90
53208;DHT22;39093;52.788;6.940;2023-03-13T10:16:48;13.00;99.90
53208;DHT22;39093;52.788;6.940;2023-03-13T10:19:18;13.10;99.90
53208;DHT22;39093;52.788;6.940;2023-03-13T10:21:51;13.20;99.90
53208;DHT22;39093;52.788;6.940;2023-03-13T10:24:44;13.30;99.90
53208;DHT22;39093;52.788;6.940;2023-03-13T10:27:13;13.30;99.90
53208;DHT22;39093;52.788;6.940;2023-03-13T10:29:40;13.40;99.90
53208;DHT22;39093;52.788;6.940;2023-03-13T10:32:10;13.30;99.90
53208;DHT22;39093;52.788;6.940;2023-03-13T10:37:19;13.50;99.90
53208;DHT22;39093;52.788;6.940;2023-03-13T10:39:45;13.70;99.90
53208;DHT22;39093;52.788;6.940;2023-03-13T10:42:42;13.70;99.90
53208;DHT22;39093;52.788;6.940;2023-03-13T10:45:18;13.80;99.90
53208;DHT22;39093;52.788;6.940;2023-03-13T10:47:55;13.80;99.90
53208;DHT22;39093;52.788;6.940;2023-03-13T10:50:24;13.90;99.90
53208;DHT22;39093;52.788;6.940;2023-03-13T10:52:52;13.90;99.90
53208;DHT22;39093;52.788;6.940;2023-03-13T10:55:21;13.90;99.90
53208;DHT22;39093;52.788;6.940;2023-03-13T10:57:58;13.90;99.90
53208;DHT22;39093;52.788;6.940;2023-03-13T11:00:33;13.90;99.90
53208;DHT22;39093;52.788;6.940;2023-03-13T11:03:05;14.00;99.90
53208;DHT22;39093;52.788;6.940;2023-03-13T11:05:40;14.00;99.90
53208;DHT22;39093;52.788;6.940;2023-03-13T11:08:20;14.10;99.90
53208;DHT22;39093;52.788;6.940;2023-03-13T11:13:40;14.20;99.90
53208;DHT22;39093;52.788;6.940;2023-03-13T11:16:20;14.30;99.90
53208;DHT22;39093;52.788;6.940;2023-03-13T11:21:43;14.60;99.90
53208;DHT22;39093;52.788;6.940;2023-03-13T11:27:06;14.80;99.90
53208;DHT22;39093;52.788;6.940;2023-03-13T11:35:06;15.30;99.90
53208;DHT22;39093;52.788;6.940;2023-03-13T11:37:37;15.80;99.90
53208;DHT22;39093;52.788;6.940;2023-03-13T11:40:24;16.20;99.90
53208;DHT22;39093;52.788;6.940;2023-03-13T11:43:15;16.80;99.90
53208;DHT22;39093;52.788;6.940;2023-03-13T11:45:57;17.30;99.90
53208;DHT22;39093;52.788;6.940;2023-03-13T11:57:30;18.20;99.90
53208;DHT22;39093;52.788;6.940;2023-03-13T12:05:59;17.50;99.90
53208;DHT22;39093;52.788;6.940;2023-03-13T12:08:37;17.40;99.90
53208;DHT22;39093;52.788;6.940;2023-03-13T12:11:25;17.20;99.90
53208;DHT22;39093;52.788;6.940;2023-03-13T12:14:04;17.60;99.90
53208;DHT22;39093;52.788;6.940;2023-03-13T12:16:59;17.70;99.90
53208;DHT22;39093;52.788;6.940;2023-03-13T12:19:40;17.20;99.90
53208;DHT22;39093;52.788;6.940;2023-03-13T12:22:26;16.90;99.90
53208;DHT22;39093;52.788;6.940;2023-03-13T12:25:03;16.60;99.90
53208;DHT22;39093;52.788;6.940;2023-03-13T12:27:38;17.30;99.90
53208;DHT22;39093;52.788;6.940;2023-03-13T12:30:23;17.30;99.90
53208;DHT22;39093;52.788;6.940;2023-03-13T12:35:28;17.50;99.90
53208;DHT22;39093;52.788;6.940;2023-03-13T12:41:30;17.50;99.90
53208;DHT22;39093;52.788;6.940;2023-03-13T12:43:58;17.30;99.90
53208;DHT22;39093;52.788;6.940;2023-03-13T12:46:45;17.30;99.90
53208;DHT22;39093;52.788;6.940;2023-03-13T12:58:22;17.50;99.90
53208;DHT22;39093;52.788;6.940;2023-03-13T13:00:53;17.60;99.50
53208;DHT22;39093;52.788;6.940;2023-03-13T13:03:42;17.80;99.90
53208;DHT22;39093;52.788;6.940;2023-03-13T13:06:14;18.10;99.90
53208;DHT22;39093;52.788;6.940;2023-03-13T13:09:02;18.50;99.60
53208;DHT22;39093;52.788;6.940;2023-03-13T13:16:56;18.90;99.30
53208;DHT22;39093;52.788;6.940;2023-03-13T13:25:00;19.10;95.60
53208;DHT22;39093;52.788;6.940;2023-03-13T13:32:53;18.10;97.10
53208;DHT22;39093;52.788;6.940;2023-03-13T13:35:27;17.90;97.70
53208;DHT22;39093;52.788;6.940;2023-03-13T13:43:38;17.00;99.90
53208;DHT22;39093;52.788;6.940;2023-03-13T13:48:44;16.70;99.90
53208;DHT22;39093;52.788;6.940;2023-03-13T13:51:18;17.30;99.90
53208;DHT22;39093;52.788;6.940;2023-03-13T13:53:54;17.20;99.90
53208;DHT22;39093;52.788;6.940;2023-03-13T14:05:00;18.50;99.40
53208;DHT22;39093;52.788;6.940;2023-03-13T14:10:05;19.80;98.30
53208;DHT22;39093;52.788;6.940;2023-03-13T14:12:37;19.90;96.80
53208;DHT22;39093;52.788;6.940;2023-03-13T14:15:28;20.20;95.70
53208;DHT22;39093;52.788;6.940;2023-03-13T14:18:28;19.60;93.90
53208;DHT22;39093;52.788;6.940;2023-03-13T14:21:00;19.30;96.00
53208;DHT22;39093;52.788;6.940;2023-03-13T14:23:44;19.80;94.20
53208;DHT22;39093;52.788;6.940;2023-03-13T14:26:23;19.90;93.50
53208;DHT22;39093;52.788;6.940;2023-03-13T14:28:56;20.80;93.90
53208;DHT22;39093;52.788;6.940;2023-03-13T14:31:35;20.70;92.30
53208;DHT22;39093;52.788;6.940;2023-03-13T14:34:04;20.20;90.70
53208;DHT22;39093;52.788;6.940;2023-03-13T14:36:47;19.80;91.80
53208;DHT22;39093;52.788;6.940;2023-03-13T14:39:36;19.50;92.00
53208;DHT22;39093;52.788;6.940;2023-03-13T14:42:05;19.10;90.60
53208;DHT22;39093;52.788;6.940;2023-03-13T14:44:34;19.00;92.20
53208;DHT22;39093;52.788;6.940;2023-03-13T14:47:06;18.60;92.60
53208;DHT22;39093;52.788;6.940;2023-03-13T14:49:34;18.40;92.20
53208;DHT22;39093;52.788;6.940;2023-03-13T14:52:16;18.10;93.10
53208;DHT22;39093;52.788;6.940;2023-03-13T14:55:01;17.70;93.40
53208;DHT22;39093;52.788;6.940;2023-03-13T14:57:32;17.50;94.90
53208;DHT22;39093;52.788;6.940;2023-03-13T15:00:38;17.60;94.30
53208;DHT22;39093;52.788;6.940;2023-03-13T15:06:01;17.40;94.90
53208;DHT22;39093;52.788;6.940;2023-03-13T15:08:29;17.60;94.50
53208;DHT22;39093;52.788;6.940;2023-03-13T15:10:56;17.70;93.50
53208;DHT22;39093;52.788;6.940;2023-03-13T15:15:58;17.70;92.50
53208;DHT22;39093;52.788;6.940;2023-03-13T15:18:27;17.70;93.00
53208;DHT22;39093;52.788;6.940;2023-03-13T15:23:51;18.10;91.50
53208;DHT22;39093;52.788;6.940;2023-03-13T15:26:20;18.10;91.00
53208;DHT22;39093;52.788;6.940;2023-03-13T15:28:47;18.20;90.30
53208;DHT22;39093;52.788;6.940;2023-03-13T15:31:14;18.30;90.50
53208;DHT22;39093;52.788;6.940;2023-03-13T15:33:42;18.30;90.10
53208;DHT22;39093;52.788;6.940;2023-03-13T15:36:10;18.30;86.20
53208;DHT22;39093;52.788;6.940;2023-03-13T15:38:38;18.20;84.90
53208;DHT22;39093;52.788;6.940;2023-03-13T15:41:05;17.80;85.20
53208;DHT22;39093;52.788;6.940;2023-03-13T15:43:34;17.60;88.10
53208;DHT22;39093;52.788;6.940;2023-03-13T15:46:19;17.20;87.60
53208;DHT22;39093;52.788;6.940;2023-03-13T15:48:47;17.00;88.90
53208;DHT22;39093;52.788;6.940;2023-03-13T15:51:15;16.90;90.00
53208;DHT22;39093;52.788;6.940;2023-03-13T15:53:43;16.70;90.60
53208;DHT22;39093;52.788;6.940;2023-03-13T15:56:16;16.50;91.10
53208;DHT22;39093;52.788;6.940;2023-03-13T15:58:45;16.40;92.00
53208;DHT22;39093;52.788;6.940;2023-03-13T16:01:14;16.30;91.70
53208;DHT22;39093;52.788;6.940;2023-03-13T16:03:42;16.40;91.80
53208;DHT22;39093;52.788;6.940;2023-03-13T16:06:18;16.40;91.70
53208;DHT22;39093;52.788;6.940;2023-03-13T16:08:46;16.20;92.40
53208;DHT22;39093;52.788;6.940;2023-03-13T16:11:15;16.20;92.40
53208;DHT22;39093;52.788;6.940;2023-03-13T16:13:42;16.10;93.30
53208;DHT22;39093;52.788;6.940;2023-03-13T16:16:20;16.20;92.40
53208;DHT22;39093;52.788;6.940;2023-03-13T16:18:48;16.30;93.30
53208;DHT22;39093;52.788;6.940;2023-03-13T16:21:19;16.10;93.00
53208;DHT22;39093;52.788;6.940;2023-03-13T16:23:47;16.00;93.80
53208;DHT22;39093;52.788;6.940;2023-03-13T16:26:26;15.90;94.20
53208;DHT22;39093;52.788;6.940;2023-03-13T16:29:12;15.70;94.70
53208;DHT22;39093;52.788;6.940;2023-03-13T16:31:40;15.60;95.70
53208;DHT22;39093;52.788;6.940;2023-03-13T16:34:32;15.50;96.20
53208;DHT22;39093;52.788;6.940;2023-03-13T16:37:18;15.40;96.10
53208;DHT22;39093;52.788;6.940;2023-03-13T16:39:46;15.40;96.60
53208;DHT22;39093;52.788;6.940;2023-03-13T16:42:14;15.50;96.70
53208;DHT22;39093;52.788;6.940;2023-03-13T16:44:40;15.30;96.30
53208;DHT22;39093;52.788;6.940;2023-03-13T16:47:26;15.30;97.40
53208;DHT22;39093;52.788;6.940;2023-03-13T16:49:54;15.30;97.00
53208;DHT22;39093;52.788;6.940;2023-03-13T16:52:21;15.20;97.10
53208;DHT22;39093;52.788;6.940;2023-03-13T16:54:49;15.10;98.00
53208;DHT22;39093;52.788;6.940;2023-03-13T16:57:18;15.10;97.90
53208;DHT22;39093;52.788;6.940;2023-03-13T16:59:48;15.00;98.20
53208;DHT22;39093;52.788;6.940;2023-03-13T17:02:18;14.80;98.60
53208;DHT22;39093;52.788;6.940;2023-03-13T17:07:57;14.40;99.90
53208;DHT22;39093;52.788;6.940;2023-03-13T17:10:39;14.40;99.90
53208;DHT22;39093;52.788;6.940;2023-03-13T17:13:06;14.20;99.90
53208;DHT22;39093;52.788;6.940;2023-03-13T17:16:09;14.10;99.90
53208;DHT22;39093;52.788;6.940;2023-03-13T17:18:52;13.90;99.90
53208;DHT22;39093;52.788;6.940;2023-03-13T17:21:24;13.80;99.90
53208;DHT22;39093;52.788;6.940;2023-03-13T17:23:52;13.80;99.90
53208;DHT22;39093;52.788;6.940;2023-03-13T17:26:21;13.70;99.90
53208;DHT22;39093;52.788;6.940;2023-03-13T17:28:55;13.60;99.90
53208;DHT22;39093;52.788;6.940;2023-03-13T17:31:24;13.60;99.90
53208;DHT22;39093;52.788;6.940;2023-03-13T17:33:51;13.50;99.90
53208;DHT22;39093;52.788;6.940;2023-03-13T17:36:27;13.40;99.90
53208;DHT22;39093;52.788;6.940;2023-03-13T17:38:56;13.30;99.90
53208;DHT22;39093;52.788;6.940;2023-03-13T17:41:28;13.30;99.90
53208;DHT22;39093;52.788;6.940;2023-03-13T17:43:55;13.20;99.90
53208;DHT22;39093;52.788;6.940;2023-03-13T17:46:28;13.10;99.90
53208;DHT22;39093;52.788;6.940;2023-03-13T17:48:56;13.10;99.90
53208;DHT22;39093;52.788;6.940;2023-03-13T17:51:25;13.10;99.90
53208;DHT22;39093;52.788;6.940;2023-03-13T17:53:53;13.00;99.90